Kimberly, Oregon
Current Conditions -  °F | °C
As of 4:55 AM on Friday 24 Oct 2014 (Local Time) from KGCD Reporting Station
Light Rain Light Rain  
Wind Chill: 44°   Ceiling: 3900
Heat Index: 47°   Visibility: 10mi
Dew Point: 43°   Wind: 6mph
Humidity: 87%   Direction: 100°E
Pressure: 30.07"   Gusts: NA
Location:  44.76°N, 119.65°W
Report Text: KGCD 241155Z AUTO 10005KT 10SM -RA OVC039 08/06 A3007 RMK AO2 70002 T00820061 10108 20082
Loading
Personal Weather Stations






























Interactive Weather Map
Tropical Storm Tracking
New forecast layout! Learn more

10-Day Weather Forecast

Advertisements
Track Severe Weather on mobile